createdAt,value
2022-12-05T00:01:19.452Z,102.37
2022-12-05T00:03:48.075Z,98.50
2022-12-05T00:06:15.252Z,102.00
2022-12-05T00:08:42.030Z,124.07
2022-12-05T00:11:26.864Z,85.77
2022-12-05T00:13:55.582Z,68.63
2022-12-05T00:16:24.692Z,57.90
2022-12-05T00:18:52.175Z,63.40
2022-12-05T00:21:25.738Z,50.17
2022-12-05T00:23:54.898Z,47.63
2022-12-05T00:26:21.809Z,49.30
2022-12-05T00:28:49.308Z,42.70
2022-12-05T00:31:19.325Z,46.87
2022-12-05T00:33:47.037Z,44.07
2022-12-05T00:36:19.994Z,43.33
2022-12-05T00:38:46.762Z,45.60
2022-12-05T00:41:15.937Z,43.97
2022-12-05T00:43:43.210Z,46.43
2022-12-05T00:46:12.775Z,40.80
2022-12-05T00:48:40.163Z,42.03
2022-12-05T00:51:10.457Z,41.57
2022-12-05T00:53:37.186Z,47.17
2022-12-05T00:56:06.322Z,46.87
2022-12-05T00:58:34.117Z,49.70
2022-12-05T01:01:09.247Z,46.17
2022-12-05T01:03:36.099Z,45.73
2022-12-05T01:06:03.703Z,43.90
2022-12-05T01:08:30.422Z,39.47
2022-12-05T01:10:58.203Z,44.97
2022-12-05T01:13:26.651Z,43.03
2022-12-05T01:15:53.661Z,46.40
2022-12-05T01:18:22.490Z,40.83
2022-12-05T01:20:49.661Z,41.47
2022-12-05T01:23:16.903Z,46.13
2022-12-05T01:25:46.516Z,37.13
2022-12-05T01:28:14.322Z,39.17
2022-12-05T01:30:43.577Z,39.20
2022-12-05T01:33:11.407Z,35.77
2022-12-05T01:35:39.717Z,34.57
2022-12-05T01:38:06.978Z,36.77
2022-12-05T01:40:34.802Z,35.40
2022-12-05T01:43:02.280Z,36.57
2022-12-05T01:45:36.661Z,37.97
2022-12-05T01:48:07.511Z,35.73
2022-12-05T01:50:35.332Z,36.17
2022-12-05T01:53:04.030Z,37.50
2022-12-05T01:55:31.222Z,39.00
2022-12-05T01:57:59.145Z,35.83
2022-12-05T02:00:26.123Z,34.07
2022-12-05T02:02:57.274Z,32.80
2022-12-05T02:05:35.512Z,29.03
2022-12-05T02:08:08.271Z,31.53
2022-12-05T02:10:40.069Z,35.53
2022-12-05T02:13:31.032Z,30.70
2022-12-05T02:16:11.915Z,32.07
2022-12-05T02:18:49.411Z,28.70
2022-12-05T02:21:31.400Z,29.37
2022-12-05T02:24:26.876Z,29.50
2022-12-05T02:26:59.615Z,31.43
2022-12-05T02:30:04.690Z,25.93
2022-12-05T02:32:40.214Z,32.17
2022-12-05T02:35:25.043Z,30.93
2022-12-05T02:38:21.003Z,28.33
2022-12-05T02:40:56.266Z,28.03
2022-12-05T02:43:42.918Z,27.70
2022-12-05T02:46:14.521Z,30.00
2022-12-05T02:48:45.324Z,26.60
2022-12-05T02:51:14.844Z,29.57
2022-12-05T02:53:44.300Z,29.47
2022-12-05T02:56:12.376Z,31.37
2022-12-05T02:58:59.353Z,25.17
2022-12-05T03:01:30.079Z,29.67
2022-12-05T03:03:59.553Z,31.47
2022-12-05T03:06:37.515Z,28.13
2022-12-05T03:09:13.026Z,27.60
2022-12-05T03:11:50.858Z,27.67
2022-12-05T03:14:23.211Z,25.37
2022-12-05T03:16:53.858Z,27.00
2022-12-05T03:19:29.083Z,24.90
2022-12-05T03:22:23.870Z,26.90
2022-12-05T03:24:51.054Z,25.70
2022-12-05T03:27:44.087Z,27.17
2022-12-05T03:30:14.392Z,24.70
2022-12-05T03:32:56.300Z,25.07
2022-12-05T03:35:30.028Z,24.27
2022-12-05T03:38:01.262Z,24.40
2022-12-05T03:40:55.991Z,28.47
2022-12-05T03:43:27.083Z,23.40
2022-12-05T03:46:18.544Z,24.90
2022-12-05T03:48:54.607Z,28.40
2022-12-05T03:51:27.489Z,25.70
2022-12-05T03:54:20.094Z,22.30
2022-12-05T03:56:54.657Z,27.60
2022-12-05T03:59:34.615Z,25.60
2022-12-05T04:02:08.764Z,25.47
2022-12-05T04:04:39.849Z,27.90
2022-12-05T04:07:08.946Z,24.87
2022-12-05T04:09:43.694Z,25.00
2022-12-05T04:12:17.539Z,25.30
2022-12-05T04:14:48.350Z,24.30
2022-12-05T04:17:21.002Z,25.77
2022-12-05T04:20:00.358Z,26.13
2022-12-05T04:22:28.086Z,21.53
2022-12-05T04:24:56.955Z,25.73
2022-12-05T04:27:34.073Z,24.63
2022-12-05T04:30:22.146Z,23.83
2022-12-05T04:33:13.635Z,20.43
2022-12-05T04:35:43.612Z,23.83
2022-12-05T04:38:39.428Z,19.30
2022-12-05T04:41:10.519Z,18.23
2022-12-05T04:43:41.879Z,22.37
2022-12-05T04:46:11.768Z,22.23
2022-12-05T04:48:40.826Z,19.33
2022-12-05T04:51:13.783Z,20.30
2022-12-05T04:53:44.053Z,22.63
2022-12-05T04:56:16.463Z,21.93
2022-12-05T04:58:43.210Z,21.57
2022-12-05T05:01:13.053Z,21.07
2022-12-05T05:03:44.886Z,21.73
2022-12-05T05:06:13.031Z,20.70
2022-12-05T05:08:48.714Z,23.43
2022-12-05T05:11:19.564Z,20.27
2022-12-05T05:13:46.749Z,23.27
2022-12-05T05:16:22.063Z,21.57
2022-12-05T05:18:49.674Z,23.17
2022-12-05T05:21:26.259Z,21.93
2022-12-05T05:23:53.428Z,21.37
2022-12-05T05:26:20.844Z,22.90
2022-12-05T05:28:50.673Z,23.30
2022-12-05T05:31:19.237Z,20.87
2022-12-05T05:40:49.356Z,19.23
2022-12-05T05:43:15.950Z,20.70
2022-12-05T05:45:42.617Z,20.87
2022-12-05T05:48:09.199Z,20.00
2022-12-05T05:50:36.721Z,22.27
2022-12-05T05:53:10.952Z,19.67
2022-12-05T05:55:41.486Z,19.70
2022-12-05T05:58:09.192Z,19.00
2022-12-05T06:00:35.902Z,19.87
2022-12-05T06:06:49.554Z,19.33
2022-12-05T06:09:21.463Z,23.83
2022-12-05T06:11:48.035Z,19.43
2022-12-05T06:14:18.497Z,20.17
2022-12-05T06:16:50.377Z,21.67
2022-12-05T06:19:16.999Z,22.13
2022-12-05T06:21:43.659Z,20.77
2022-12-05T06:24:10.235Z,21.50
2022-12-05T06:26:36.901Z,20.80
2022-12-05T06:29:03.588Z,23.77
2022-12-05T06:31:30.309Z,20.83
2022-12-05T06:34:00.617Z,22.50
2022-12-05T06:36:27.448Z,19.37
2022-12-05T06:38:54.036Z,21.57
2022-12-05T06:41:21.189Z,20.60
2022-12-05T06:43:48.175Z,26.37
2022-12-05T06:46:16.230Z,26.50
2022-12-05T06:48:43.062Z,24.97
2022-12-05T06:51:12.712Z,23.80
2022-12-05T06:53:39.700Z,25.73
2022-12-05T06:56:09.716Z,26.17
2022-12-05T06:58:36.801Z,31.27
2022-12-05T07:01:03.878Z,32.50
2022-12-05T07:03:30.530Z,31.87
2022-12-05T07:06:01.097Z,50.13
2022-12-05T07:08:27.807Z,25.93
2022-12-05T07:10:54.614Z,41.30
2022-12-05T07:13:21.454Z,41.43
2022-12-05T07:15:48.733Z,41.53
2022-12-05T07:18:16.449Z,26.37
2022-12-05T07:21:10.777Z,25.80
2022-12-05T07:23:30.767Z,25.07
2022-12-05T07:25:57.398Z,33.13
2022-12-05T07:28:24.892Z,24.70
2022-12-05T07:31:08.881Z,22.70
2022-12-05T07:33:36.614Z,21.13
2022-12-05T07:36:15.502Z,25.73
2022-12-05T07:38:42.895Z,23.70
2022-12-05T07:41:21.659Z,27.13
2022-12-05T07:43:48.420Z,39.30
2022-12-05T07:46:15.145Z,20.43
2022-12-05T07:48:41.863Z,20.53
2022-12-05T07:51:09.320Z,22.77
2022-12-05T07:53:40.225Z,20.77
2022-12-05T07:56:09.302Z,24.57
2022-12-05T07:58:36.485Z,22.67
2022-12-05T08:01:11.807Z,22.57
2022-12-05T08:03:39.065Z,24.37
2022-12-05T08:06:10.741Z,26.43
2022-12-05T08:08:38.099Z,24.17
2022-12-05T08:11:13.297Z,22.47
2022-12-05T08:13:40.492Z,21.63
2022-12-05T08:16:10.668Z,21.67
2022-12-05T08:18:37.775Z,24.43
2022-12-05T08:21:13.394Z,22.93
2022-12-05T08:23:40.678Z,26.23
2022-12-05T08:26:16.074Z,20.30
2022-12-05T08:28:44.114Z,23.47
2022-12-05T08:31:13.562Z,25.57
2022-12-05T08:33:40.895Z,25.57
2022-12-05T08:36:09.814Z,23.40
2022-12-05T08:38:36.715Z,21.63
2022-12-05T08:41:05.284Z,23.23
2022-12-05T08:43:32.588Z,23.47
2022-12-05T08:46:00.381Z,20.33
2022-12-05T08:48:29.657Z,22.70
2022-12-05T08:50:57.329Z,22.90
2022-12-05T08:53:24.644Z,22.07
2022-12-05T08:55:51.555Z,20.87
2022-12-05T08:58:18.284Z,21.13
2022-12-05T09:00:44.865Z,22.07
2022-12-05T09:03:12.276Z,24.73
2022-12-05T09:05:39.286Z,24.20
2022-12-05T09:08:06.129Z,23.97
2022-12-05T09:10:32.860Z,26.00
2022-12-05T09:12:59.632Z,23.67
2022-12-05T09:15:26.328Z,19.90
2022-12-05T09:17:53.131Z,18.63
2022-12-05T09:20:19.978Z,19.43
2022-12-05T09:22:49.761Z,17.70
2022-12-05T09:25:16.447Z,20.83
2022-12-05T09:27:43.149Z,22.37
2022-12-05T09:30:10.154Z,23.33
2022-12-05T09:32:37.425Z,24.30
2022-12-05T09:35:04.252Z,30.60
2022-12-05T09:37:39.150Z,30.77
2022-12-05T09:40:07.851Z,28.87
2022-12-05T09:42:53.197Z,23.47
2022-12-05T09:45:35.523Z,20.13
2022-12-05T09:48:11.149Z,19.37
2022-12-05T09:50:45.924Z,16.57
2022-12-05T09:53:32.342Z,18.50
2022-12-05T09:56:30.327Z,18.20
2022-12-05T09:58:59.097Z,18.77
2022-12-05T10:01:40.775Z,21.43
2022-12-05T10:04:13.649Z,18.57
2022-12-05T10:06:47.907Z,18.13
2022-12-05T10:09:36.474Z,17.53
2022-12-05T10:12:18.017Z,19.07
2022-12-05T10:15:36.107Z,23.17
2022-12-05T10:18:10.932Z,20.33
2022-12-05T10:21:06.396Z,18.83
2022-12-05T10:23:59.132Z,18.20
2022-12-05T10:26:32.459Z,20.07
2022-12-05T10:29:11.614Z,17.40
2022-12-05T10:31:39.908Z,18.67
2022-12-05T10:34:27.851Z,19.83
2022-12-05T10:37:03.022Z,17.90
2022-12-05T10:39:29.864Z,18.40
2022-12-05T10:41:56.474Z,17.70
2022-12-05T10:44:26.325Z,17.73
2022-12-05T10:46:53.143Z,16.37
2022-12-05T10:49:20.746Z,17.00
2022-12-05T10:51:48.186Z,16.50
2022-12-05T10:54:19.344Z,18.50
2022-12-05T10:56:51.889Z,17.63
2022-12-05T10:59:25.531Z,18.80
2022-12-05T11:01:55.325Z,17.13
2022-12-05T11:04:32.508Z,18.00
2022-12-05T11:07:05.171Z,19.53
2022-12-05T11:09:47.897Z,18.07
2022-12-05T11:12:20.595Z,18.27
2022-12-05T11:14:56.443Z,17.47
2022-12-05T11:17:30.373Z,15.03
2022-12-05T11:19:57.127Z,19.50
2022-12-05T11:22:36.363Z,16.83
2022-12-05T11:25:28.445Z,16.20
2022-12-05T11:28:00.991Z,16.30
2022-12-05T11:30:29.545Z,16.97
2022-12-05T11:33:11.931Z,17.20
2022-12-05T11:35:39.738Z,17.67
2022-12-05T11:38:06.979Z,16.73
2022-12-05T11:40:53.088Z,19.77
2022-12-05T11:43:47.196Z,16.60
2022-12-05T11:46:32.072Z,16.13
2022-12-05T11:49:37.930Z,17.40
2022-12-05T11:52:19.651Z,17.53
2022-12-05T11:55:07.412Z,17.93
2022-12-05T11:58:03.182Z,17.87
2022-12-05T12:00:48.128Z,18.03
2022-12-05T12:03:32.598Z,16.10
2022-12-05T12:06:32.107Z,17.93
2022-12-05T12:09:01.535Z,19.73
2022-12-05T12:11:55.378Z,16.60
2022-12-05T12:14:26.956Z,18.57
2022-12-05T12:17:02.163Z,19.13
2022-12-05T12:19:47.823Z,17.43
2022-12-05T12:22:38.699Z,16.70
2022-12-05T12:25:41.551Z,18.03
2022-12-05T12:28:29.177Z,19.47
2022-12-05T12:31:24.472Z,16.67
2022-12-05T12:34:04.228Z,18.57
2022-12-05T12:36:33.701Z,17.63
2022-12-05T12:39:28.016Z,19.70
2022-12-05T12:42:00.745Z,18.83
2022-12-05T12:44:51.847Z,21.37
2022-12-05T12:47:31.190Z,20.60
2022-12-05T12:50:00.620Z,22.03
2022-12-05T12:52:39.645Z,19.53
2022-12-05T12:55:35.307Z,21.10
2022-12-05T12:58:23.928Z,20.17
2022-12-05T13:01:09.004Z,22.83
2022-12-05T13:03:51.866Z,20.33
2022-12-05T13:06:26.886Z,21.63
2022-12-05T13:08:59.827Z,19.73
2022-12-05T13:11:33.706Z,18.53
2022-12-05T13:14:02.369Z,18.33
2022-12-05T13:16:44.018Z,18.70
2022-12-05T13:19:31.463Z,21.20
2022-12-05T13:21:59.288Z,19.00
2022-12-05T13:24:28.384Z,19.37
2022-12-05T13:27:00.218Z,21.43
2022-12-05T13:29:52.242Z,18.80
2022-12-05T13:32:29.938Z,21.23
2022-12-05T13:35:21.133Z,18.47
2022-12-05T13:37:48.729Z,23.83
2022-12-05T13:40:34.516Z,19.50
2022-12-05T13:43:03.321Z,20.03
2022-12-05T13:45:30.568Z,17.23
2022-12-05T13:47:59.980Z,17.10
2022-12-05T13:50:51.533Z,18.40
2022-12-05T13:53:42.648Z,18.53
2022-12-05T13:56:12.496Z,26.10
2022-12-05T13:58:50.070Z,23.43
2022-12-05T14:01:26.105Z,25.00
2022-12-05T14:03:59.186Z,22.47
2022-12-05T14:06:34.853Z,21.57
2022-12-05T14:09:19.517Z,18.63
2022-12-05T14:12:10.868Z,17.53
2022-12-05T14:14:55.669Z,19.00
2022-12-05T14:17:26.953Z,17.57
2022-12-05T14:19:59.731Z,19.03
2022-12-05T14:22:33.419Z,21.20
2022-12-05T14:25:18.606Z,18.73
2022-12-05T14:28:16.889Z,20.17
2022-12-05T14:31:11.693Z,18.47
2022-12-05T14:33:38.777Z,16.97
2022-12-05T14:36:16.745Z,18.00
2022-12-05T14:38:44.642Z,17.93
2022-12-05T14:41:12.986Z,15.67
2022-12-05T14:43:41.395Z,18.63
2022-12-05T14:46:25.230Z,17.70
2022-12-05T14:48:52.230Z,16.47
2022-12-05T14:51:30.770Z,18.13
2022-12-05T14:54:11.822Z,18.97
2022-12-05T14:56:52.466Z,18.77
2022-12-05T14:59:36.545Z,18.77
2022-12-05T15:02:03.927Z,23.67
2022-12-05T15:04:41.580Z,28.80
2022-12-05T15:07:12.925Z,22.73
2022-12-05T15:09:50.560Z,22.80
2022-12-05T15:12:44.532Z,24.03
2022-12-05T15:15:20.878Z,19.53
2022-12-05T15:17:55.891Z,19.10
2022-12-05T15:20:41.740Z,21.60
2022-12-05T15:23:45.848Z,18.67
2022-12-05T15:29:25.443Z,17.77
2022-12-05T15:32:04.237Z,22.10
2022-12-05T15:34:31.105Z,21.13
2022-12-05T15:37:11.174Z,18.50
2022-12-05T15:39:49.798Z,19.87
2022-12-05T15:42:16.643Z,15.03
2022-12-05T15:44:43.235Z,17.77
2022-12-05T15:47:20.610Z,17.20
2022-12-05T15:49:47.572Z,23.93
2022-12-05T15:52:33.035Z,22.63
2022-12-05T15:55:07.664Z,20.00
2022-12-05T15:57:58.704Z,17.63
2022-12-05T16:00:26.133Z,18.30
2022-12-05T16:03:00.736Z,18.73
2022-12-05T16:05:41.610Z,18.97
2022-12-05T16:08:08.932Z,19.07
2022-12-05T16:10:36.590Z,18.30
2022-12-05T16:13:14.924Z,18.33
2022-12-05T16:15:53.211Z,18.60
2022-12-05T16:18:31.431Z,20.13
2022-12-05T16:20:58.491Z,18.90
2022-12-05T16:23:30.356Z,16.80
2022-12-05T16:26:16.052Z,15.97
2022-12-05T16:28:42.735Z,17.47
2022-12-05T16:31:15.343Z,17.90
2022-12-05T16:33:43.984Z,15.60
2022-12-05T16:36:12.434Z,17.27
2022-12-05T16:38:40.162Z,15.57
2022-12-05T16:41:08.280Z,17.60
2022-12-05T16:43:34.887Z,15.77
2022-12-05T16:46:13.864Z,15.83
2022-12-05T16:49:21.087Z,15.67
2022-12-05T16:52:15.591Z,15.50
2022-12-05T16:54:45.020Z,14.80
2022-12-05T16:57:16.671Z,15.37
2022-12-05T16:59:44.080Z,14.90
2022-12-05T17:02:13.898Z,15.07
2022-12-05T17:04:41.681Z,15.53
2022-12-05T17:07:09.086Z,14.70
2022-12-05T17:09:35.866Z,15.07
2022-12-05T17:12:18.683Z,14.13
2022-12-05T17:14:46.163Z,15.67
2022-12-05T17:17:14.436Z,13.07
2022-12-05T17:19:41.140Z,16.93
2022-12-05T17:22:12.663Z,15.70
2022-12-05T17:24:39.286Z,13.10
2022-12-05T17:27:09.320Z,15.97
2022-12-05T17:29:36.141Z,13.53
2022-12-05T17:32:03.361Z,12.87
2022-12-05T17:34:30.360Z,13.73
2022-12-05T17:36:57.093Z,13.97
2022-12-05T17:39:28.394Z,14.00
2022-12-05T17:41:56.125Z,13.07
2022-12-05T17:44:22.856Z,12.63
2022-12-05T17:46:49.600Z,12.83
2022-12-05T17:49:16.600Z,12.60
2022-12-05T17:52:05.391Z,12.23
2022-12-05T17:54:30.802Z,12.33
2022-12-05T17:56:57.385Z,12.20
2022-12-05T17:59:24.066Z,11.47
2022-12-05T18:01:50.707Z,12.13
2022-12-05T18:04:22.693Z,10.53
2022-12-05T18:06:50.066Z,11.97
2022-12-05T18:09:16.773Z,11.40
2022-12-05T18:11:43.701Z,12.20
2022-12-05T18:14:10.309Z,10.80
2022-12-05T18:16:37.132Z,9.90
2022-12-05T18:19:03.871Z,10.67
2022-12-05T18:21:30.548Z,10.50
2022-12-05T18:23:57.180Z,9.10
2022-12-05T18:26:23.891Z,10.07
2022-12-05T18:28:51.458Z,10.33
2022-12-05T18:31:18.495Z,10.13
2022-12-05T18:33:46.742Z,8.93
2022-12-05T18:36:16.283Z,9.00
2022-12-05T18:38:44.003Z,9.03
2022-12-05T18:41:10.702Z,9.60
2022-12-05T18:43:37.302Z,11.33
2022-12-05T18:46:05.216Z,11.03
2022-12-05T18:48:43.725Z,8.87
2022-12-05T18:51:19.677Z,11.63
2022-12-05T18:53:48.325Z,9.83
2022-12-05T18:56:23.736Z,10.27
2022-12-05T18:59:00.224Z,9.27
2022-12-05T19:01:27.936Z,8.87
2022-12-05T19:03:56.481Z,9.40
2022-12-05T19:06:26.127Z,9.80
2022-12-05T19:08:54.715Z,10.87
2022-12-05T19:11:21.390Z,9.20
2022-12-05T19:13:48.053Z,7.93
2022-12-05T19:16:16.138Z,8.77
2022-12-05T19:18:43.237Z,10.57
2022-12-05T19:21:10.336Z,8.60
2022-12-05T19:23:37.066Z,8.83
2022-12-05T19:26:07.638Z,8.30
2022-12-05T19:28:36.642Z,9.53
2022-12-05T19:31:09.908Z,8.17
2022-12-05T19:33:41.858Z,8.37
2022-12-05T19:36:13.871Z,8.40
2022-12-05T19:38:42.839Z,7.53
2022-12-05T19:41:12.169Z,8.50
2022-12-05T19:43:39.406Z,9.03
2022-12-05T19:46:08.660Z,9.20
2022-12-05T19:48:35.568Z,7.97
2022-12-05T19:51:02.425Z,7.83
2022-12-05T19:53:31.810Z,8.27
2022-12-05T19:56:04.005Z,9.07
2022-12-05T19:58:35.968Z,7.63
2022-12-05T20:01:17.767Z,9.00
2022-12-05T20:03:48.669Z,8.47
2022-12-05T20:06:16.069Z,8.03
2022-12-05T20:08:42.868Z,11.00
2022-12-05T20:11:12.825Z,10.53
2022-12-05T20:13:48.210Z,9.83
2022-12-05T20:16:17.249Z,10.43
2022-12-05T20:18:43.920Z,12.40
2022-12-05T20:21:13.579Z,9.90
2022-12-05T20:23:40.509Z,9.63
2022-12-05T20:26:13.592Z,9.43
2022-12-05T20:28:40.844Z,9.10
2022-12-05T20:31:12.668Z,9.93
2022-12-05T20:33:39.771Z,10.07
2022-12-05T20:36:08.977Z,9.37
2022-12-05T20:38:35.932Z,9.37
2022-12-05T20:41:05.569Z,11.30
2022-12-05T20:43:32.386Z,11.73
2022-12-05T20:46:16.353Z,12.30
2022-12-05T20:48:43.882Z,13.03
2022-12-05T20:51:25.282Z,12.20
2022-12-05T20:53:52.689Z,12.57
2022-12-05T20:56:22.303Z,10.73
2022-12-05T20:58:51.464Z,10.77
2022-12-05T21:01:19.708Z,10.60
2022-12-05T21:03:49.066Z,9.67
2022-12-05T21:06:18.150Z,10.63
2022-12-05T21:08:44.818Z,8.37
2022-12-05T21:11:12.396Z,8.33
2022-12-05T21:13:39.858Z,9.07
2022-12-05T21:16:13.230Z,8.87
2022-12-05T21:18:40.640Z,8.27
2022-12-05T21:21:11.363Z,8.27
2022-12-05T21:23:38.040Z,9.57
2022-12-05T21:26:11.682Z,8.90
2022-12-05T21:28:38.836Z,8.73
2022-12-05T21:31:11.395Z,8.93
2022-12-05T21:33:38.982Z,9.40
2022-12-05T21:36:07.197Z,8.83
2022-12-05T21:38:33.990Z,8.00
2022-12-05T21:41:01.931Z,8.83
2022-12-05T21:43:29.538Z,9.40
2022-12-05T21:45:56.225Z,9.77
2022-12-05T21:48:25.546Z,9.07
2022-12-05T21:50:53.755Z,9.33
2022-12-05T21:53:21.215Z,8.70
2022-12-05T21:55:47.885Z,11.60
2022-12-05T21:58:14.706Z,11.03
2022-12-05T22:00:42.455Z,8.03
2022-12-05T22:03:13.907Z,9.17
2022-12-05T22:05:40.765Z,8.77
2022-12-05T22:08:07.419Z,8.50
2022-12-05T22:10:38.266Z,9.77
2022-12-05T22:13:05.151Z,10.70
2022-12-05T22:15:31.784Z,8.93
2022-12-05T22:17:58.424Z,8.80
2022-12-05T22:20:25.012Z,9.57
2022-12-05T22:22:51.687Z,8.93
2022-12-05T22:25:18.354Z,9.50
2022-12-05T22:27:45.036Z,10.17
2022-12-05T22:30:11.937Z,8.67
2022-12-05T22:32:38.692Z,9.47
2022-12-05T22:35:05.446Z,8.63
2022-12-05T22:37:32.098Z,9.47
2022-12-05T22:39:59.031Z,9.07
2022-12-05T22:42:26.976Z,10.37
2022-12-05T22:44:53.559Z,10.37
2022-12-05T22:47:20.682Z,9.77
2022-12-05T22:49:47.444Z,9.27
2022-12-05T22:52:14.218Z,10.53
2022-12-05T22:54:40.909Z,8.30
2022-12-05T22:57:07.548Z,9.33
2022-12-05T22:59:34.134Z,10.83
2022-12-05T23:02:00.815Z,9.83
2022-12-05T23:04:27.539Z,10.87
2022-12-05T23:06:54.217Z,9.50
2022-12-05T23:09:20.917Z,9.47
2022-12-05T23:11:49.426Z,10.87
2022-12-05T23:14:16.057Z,11.27
2022-12-05T23:16:42.804Z,12.23
2022-12-05T23:19:09.609Z,10.27
2022-12-05T23:21:39.522Z,9.60
2022-12-05T23:24:11.715Z,10.43
2022-12-05T23:26:42.013Z,10.30
2022-12-05T23:29:10.178Z,10.50
2022-12-05T23:31:36.944Z,10.73
2022-12-05T23:34:04.378Z,8.90
2022-12-05T23:36:32.595Z,11.37
2022-12-05T23:38:59.927Z,9.97
2022-12-05T23:41:26.531Z,9.63
2022-12-05T23:43:53.707Z,8.20
2022-12-05T23:46:23.885Z,9.43
2022-12-05T23:48:51.130Z,8.87
2022-12-05T23:51:23.555Z,8.13
2022-12-05T23:53:56.128Z,8.87
2022-12-05T23:56:25.697Z,9.33
2022-12-05T23:58:53.618Z,9.23
